sensor_id;sensor_type;location;lat;lon;timestamp;P1;durP1;ratioP1;P2;durP2;ratioP2
9445;SDS011;4761;49.490;10.908;2023-08-06T00:00:05;1.70;;;1.60;;
9445;SDS011;4761;49.490;10.908;2023-08-06T00:02:31;3.35;;;1.77;;
9445;SDS011;4761;49.490;10.908;2023-08-06T00:04:56;1.83;;;1.73;;
9445;SDS011;4761;49.490;10.908;2023-08-06T00:07:22;1.80;;;1.70;;
9445;SDS011;4761;49.490;10.908;2023-08-06T00:09:47;1.52;;;1.42;;
9445;SDS011;4761;49.490;10.908;2023-08-06T00:12:13;1.60;;;1.50;;
9445;SDS011;4761;49.490;10.908;2023-08-06T00:14:38;1.92;;;1.50;;
9445;SDS011;4761;49.490;10.908;2023-08-06T00:17:04;1.70;;;1.60;;
9445;SDS011;4761;49.490;10.908;2023-08-06T00:19:30;2.05;;;1.85;;
9445;SDS011;4761;49.490;10.908;2023-08-06T00:21:56;1.95;;;1.80;;
9445;SDS011;4761;49.490;10.908;2023-08-06T00:24:22;1.60;;;1.50;;
9445;SDS011;4761;49.490;10.908;2023-08-06T00:26:47;2.20;;;1.70;;
9445;SDS011;4761;49.490;10.908;2023-08-06T00:29:13;2.00;;;1.80;;
9445;SDS011;4761;49.490;10.908;2023-08-06T00:31:38;1.90;;;1.70;;
9445;SDS011;4761;49.490;10.908;2023-08-06T00:34:04;1.60;;;1.50;;
9445;SDS011;4761;49.490;10.908;2023-08-06T00:36:29;1.60;;;1.50;;
9445;SDS011;4761;49.490;10.908;2023-08-06T00:38:55;1.60;;;1.50;;
9445;SDS011;4761;49.490;10.908;2023-08-06T00:41:20;1.92;;;1.65;;
9445;SDS011;4761;49.490;10.908;2023-08-06T00:43:46;1.60;;;1.50;;
9445;SDS011;4761;49.490;10.908;2023-08-06T00:46:11;1.95;;;1.50;;
9445;SDS011;4761;49.490;10.908;2023-08-06T00:48:37;1.75;;;1.65;;
9445;SDS011;4761;49.490;10.908;2023-08-06T00:51:04;1.70;;;1.60;;
9445;SDS011;4761;49.490;10.908;2023-08-06T00:53:30;1.58;;;1.48;;
9445;SDS011;4761;49.490;10.908;2023-08-06T00:55:55;1.50;;;1.40;;
9445;SDS011;4761;49.490;10.908;2023-08-06T00:58:21;1.50;;;1.40;;
9445;SDS011;4761;49.490;10.908;2023-08-06T01:00:47;1.67;;;1.58;;
9445;SDS011;4761;49.490;10.908;2023-08-06T01:03:12;1.60;;;1.50;;
9445;SDS011;4761;49.490;10.908;2023-08-06T01:05:38;1.60;;;1.50;;
9445;SDS011;4761;49.490;10.908;2023-08-06T01:14:05;1.60;;;1.50;;
9445;SDS011;4761;49.490;10.908;2023-08-06T01:16:35;1.67;;;1.45;;
9445;SDS011;4761;49.490;10.908;2023-08-06T01:19:02;1.58;;;1.48;;
9445;SDS011;4761;49.490;10.908;2023-08-06T01:21:27;1.42;;;1.33;;
9445;SDS011;4761;49.490;10.908;2023-08-06T01:23:53;1.80;;;1.48;;
9445;SDS011;4761;49.490;10.908;2023-08-06T01:31:32;1.70;;;1.60;;
9445;SDS011;4761;49.490;10.908;2023-08-06T01:34:03;1.60;;;1.50;;
9445;SDS011;4761;49.490;10.908;2023-08-06T01:36:30;1.77;;;1.45;;
9445;SDS011;4761;49.490;10.908;2023-08-06T01:38:57;1.60;;;1.40;;
9445;SDS011;4761;49.490;10.908;2023-08-06T01:41:22;1.73;;;1.63;;
9445;SDS011;4761;49.490;10.908;2023-08-06T01:43:48;1.95;;;1.45;;
9445;SDS011;4761;49.490;10.908;2023-08-06T01:46:13;1.30;;;1.20;;
9445;SDS011;4761;49.490;10.908;2023-08-06T01:48:39;1.42;;;1.33;;
9445;SDS011;4761;49.490;10.908;2023-08-06T01:51:08;2.13;;;1.50;;
9445;SDS011;4761;49.490;10.908;2023-08-06T01:53:34;1.45;;;1.35;;
9445;SDS011;4761;49.490;10.908;2023-08-06T01:55:59;1.52;;;1.38;;
9445;SDS011;4761;49.490;10.908;2023-08-06T01:58:25;1.50;;;1.40;;
9445;SDS011;4761;49.490;10.908;2023-08-06T02:00:50;1.30;;;1.20;;
9445;SDS011;4761;49.490;10.908;2023-08-06T02:03:16;1.33;;;1.23;;
9445;SDS011;4761;49.490;10.908;2023-08-06T02:05:42;1.25;;;1.25;;
9445;SDS011;4761;49.490;10.908;2023-08-06T02:08:07;1.10;;;1.10;;
9445;SDS011;4761;49.490;10.908;2023-08-06T02:10:33;1.33;;;1.23;;
9445;SDS011;4761;49.490;10.908;2023-08-06T02:12:59;1.40;;;1.30;;
9445;SDS011;4761;49.490;10.908;2023-08-06T02:15:24;1.40;;;1.30;;
9445;SDS011;4761;49.490;10.908;2023-08-06T02:17:50;1.58;;;1.48;;
9445;SDS011;4761;49.490;10.908;2023-08-06T02:20:15;1.38;;;1.27;;
9445;SDS011;4761;49.490;10.908;2023-08-06T02:22:41;1.38;;;1.27;;
9445;SDS011;4761;49.490;10.908;2023-08-06T02:25:07;1.35;;;1.25;;
9445;SDS011;4761;49.490;10.908;2023-08-06T02:27:32;1.50;;;1.40;;
9445;SDS011;4761;49.490;10.908;2023-08-06T02:29:58;1.33;;;1.23;;
9445;SDS011;4761;49.490;10.908;2023-08-06T02:32:23;1.35;;;1.25;;
9445;SDS011;4761;49.490;10.908;2023-08-06T02:34:49;1.50;;;1.40;;
9445;SDS011;4761;49.490;10.908;2023-08-06T02:37:14;1.27;;;1.20;;
9445;SDS011;4761;49.490;10.908;2023-08-06T02:39:40;1.58;;;1.40;;
9445;SDS011;4761;49.490;10.908;2023-08-06T02:42:06;1.27;;;1.17;;
9445;SDS011;4761;49.490;10.908;2023-08-06T02:44:32;1.40;;;1.30;;
9445;SDS011;4761;49.490;10.908;2023-08-06T02:46:58;1.30;;;1.20;;
9445;SDS011;4761;49.490;10.908;2023-08-06T02:49:24;1.50;;;1.40;;
9445;SDS011;4761;49.490;10.908;2023-08-06T02:51:50;1.30;;;1.20;;
9445;SDS011;4761;49.490;10.908;2023-08-06T02:54:16;1.50;;;1.40;;
9445;SDS011;4761;49.490;10.908;2023-08-06T02:56:43;2.50;;;1.40;;
9445;SDS011;4761;49.490;10.908;2023-08-06T02:59:10;1.27;;;1.17;;
9445;SDS011;4761;49.490;10.908;2023-08-06T03:01:35;1.30;;;1.20;;
9445;SDS011;4761;49.490;10.908;2023-08-06T03:04:01;1.13;;;1.10;;
9445;SDS011;4761;49.490;10.908;2023-08-06T03:06:27;1.40;;;1.30;;
9445;SDS011;4761;49.490;10.908;2023-08-06T03:08:52;1.30;;;1.20;;
9445;SDS011;4761;49.490;10.908;2023-08-06T03:11:18;2.85;;;1.30;;
9445;SDS011;4761;49.490;10.908;2023-08-06T03:13:43;1.30;;;1.20;;
9445;SDS011;4761;49.490;10.908;2023-08-06T03:16:09;1.00;;;1.00;;
9445;SDS011;4761;49.490;10.908;2023-08-06T03:18:34;1.30;;;1.20;;
9445;SDS011;4761;49.490;10.908;2023-08-06T03:21:00;1.30;;;1.20;;
9445;SDS011;4761;49.490;10.908;2023-08-06T03:23:25;1.48;;;1.38;;
9445;SDS011;4761;49.490;10.908;2023-08-06T03:25:51;1.10;;;1.00;;
9445;SDS011;4761;49.490;10.908;2023-08-06T03:28:16;1.48;;;1.27;;
9445;SDS011;4761;49.490;10.908;2023-08-06T03:30:42;1.30;;;1.20;;
9445;SDS011;4761;49.490;10.908;2023-08-06T03:33:08;1.40;;;1.20;;
9445;SDS011;4761;49.490;10.908;2023-08-06T03:35:33;1.13;;;1.02;;
9445;SDS011;4761;49.490;10.908;2023-08-06T03:37:59;1.73;;;1.40;;
9445;SDS011;4761;49.490;10.908;2023-08-06T03:40:24;1.45;;;1.30;;
9445;SDS011;4761;49.490;10.908;2023-08-06T03:42:50;1.40;;;1.30;;
9445;SDS011;4761;49.490;10.908;2023-08-06T03:45:16;1.25;;;1.15;;
9445;SDS011;4761;49.490;10.908;2023-08-06T03:47:41;1.08;;;1.08;;
9445;SDS011;4761;49.490;10.908;2023-08-06T03:50:07;1.00;;;1.00;;
9445;SDS011;4761;49.490;10.908;2023-08-06T03:52:32;1.13;;;1.13;;
9445;SDS011;4761;49.490;10.908;2023-08-06T03:54:58;1.90;;;1.13;;
9445;SDS011;4761;49.490;10.908;2023-08-06T03:57:23;2.83;;;1.27;;
9445;SDS011;4761;49.490;10.908;2023-08-06T03:59:49;1.88;;;1.45;;
9445;SDS011;4761;49.490;10.908;2023-08-06T04:02:14;1.23;;;1.10;;
9445;SDS011;4761;49.490;10.908;2023-08-06T04:04:40;1.95;;;1.23;;
9445;SDS011;4761;49.490;10.908;2023-08-06T04:07:05;3.22;;;1.25;;
9445;SDS011;4761;49.490;10.908;2023-08-06T04:09:31;1.30;;;1.20;;
9445;SDS011;4761;49.490;10.908;2023-08-06T04:11:56;1.40;;;1.15;;
9445;SDS011;4761;49.490;10.908;2023-08-06T04:14:23;1.55;;;1.35;;
9445;SDS011;4761;49.490;10.908;2023-08-06T04:16:50;1.77;;;1.10;;
9445;SDS011;4761;49.490;10.908;2023-08-06T04:19:16;1.75;;;1.27;;
9445;SDS011;4761;49.490;10.908;2023-08-06T04:21:41;1.20;;;1.20;;
9445;SDS011;4761;49.490;10.908;2023-08-06T04:24:07;1.65;;;1.25;;
9445;SDS011;4761;49.490;10.908;2023-08-06T04:26:33;1.13;;;1.00;;
9445;SDS011;4761;49.490;10.908;2023-08-06T04:28:58;1.30;;;1.20;;
9445;SDS011;4761;49.490;10.908;2023-08-06T04:31:24;1.30;;;1.20;;
9445;SDS011;4761;49.490;10.908;2023-08-06T04:33:49;1.60;;;1.10;;
9445;SDS011;4761;49.490;10.908;2023-08-06T04:36:15;1.73;;;1.27;;
9445;SDS011;4761;49.490;10.908;2023-08-06T04:38:40;1.25;;;1.15;;
9445;SDS011;4761;49.490;10.908;2023-08-06T04:41:10;2.25;;;1.20;;
9445;SDS011;4761;49.490;10.908;2023-08-06T04:43:36;1.73;;;1.20;;
9445;SDS011;4761;49.490;10.908;2023-08-06T04:46:01;1.40;;;1.30;;
9445;SDS011;4761;49.490;10.908;2023-08-06T04:48:27;2.40;;;1.35;;
9445;SDS011;4761;49.490;10.908;2023-08-06T04:50:52;1.08;;;1.08;;
9445;SDS011;4761;49.490;10.908;2023-08-06T04:53:18;1.30;;;1.20;;
9445;SDS011;4761;49.490;10.908;2023-08-06T04:55:43;1.27;;;1.17;;
9445;SDS011;4761;49.490;10.908;2023-08-06T04:58:09;1.00;;;1.00;;
9445;SDS011;4761;49.490;10.908;2023-08-06T05:00:35;1.33;;;1.23;;
9445;SDS011;4761;49.490;10.908;2023-08-06T05:03:01;1.35;;;1.20;;
9445;SDS011;4761;49.490;10.908;2023-08-06T05:05:27;2.85;;;1.40;;
9445;SDS011;4761;49.490;10.908;2023-08-06T05:07:53;1.30;;;1.20;;
9445;SDS011;4761;49.490;10.908;2023-08-06T05:10:20;1.20;;;1.20;;
9445;SDS011;4761;49.490;10.908;2023-08-06T05:12:45;1.30;;;1.20;;
9445;SDS011;4761;49.490;10.908;2023-08-06T05:15:11;1.23;;;1.13;;
9445;SDS011;4761;49.490;10.908;2023-08-06T05:17:36;1.20;;;1.10;;
9445;SDS011;4761;49.490;10.908;2023-08-06T05:20:02;1.10;;;1.10;;
9445;SDS011;4761;49.490;10.908;2023-08-06T05:22:28;1.45;;;1.35;;
9445;SDS011;4761;49.490;10.908;2023-08-06T05:24:53;1.40;;;1.30;;
9445;SDS011;4761;49.490;10.908;2023-08-06T05:27:19;1.10;;;1.10;;
9445;SDS011;4761;49.490;10.908;2023-08-06T05:29:45;1.30;;;1.20;;
9445;SDS011;4761;49.490;10.908;2023-08-06T05:32:12;1.30;;;1.20;;
9445;SDS011;4761;49.490;10.908;2023-08-06T05:34:38;1.45;;;1.35;;
9445;SDS011;4761;49.490;10.908;2023-08-06T05:37:04;1.30;;;1.20;;
9445;SDS011;4761;49.490;10.908;2023-08-06T05:39:30;1.25;;;1.10;;
9445;SDS011;4761;49.490;10.908;2023-08-06T05:41:55;1.30;;;1.20;;
9445;SDS011;4761;49.490;10.908;2023-08-06T05:44:21;1.42;;;1.33;;
9445;SDS011;4761;49.490;10.908;2023-08-06T05:46:48;1.85;;;1.23;;
9445;SDS011;4761;49.490;10.908;2023-08-06T05:49:14;1.30;;;1.20;;
9445;SDS011;4761;49.490;10.908;2023-08-06T05:51:40;1.30;;;1.20;;
9445;SDS011;4761;49.490;10.908;2023-08-06T05:54:06;1.60;;;1.50;;
9445;SDS011;4761;49.490;10.908;2023-08-06T05:56:32;1.42;;;1.33;;
9445;SDS011;4761;49.490;10.908;2023-08-06T05:58:57;1.40;;;1.30;;
9445;SDS011;4761;49.490;10.908;2023-08-06T06:01:23;1.08;;;1.08;;
9445;SDS011;4761;49.490;10.908;2023-08-06T06:03:48;1.20;;;1.10;;
9445;SDS011;4761;49.490;10.908;2023-08-06T06:06:14;1.30;;;1.20;;
9445;SDS011;4761;49.490;10.908;2023-08-06T06:08:39;1.33;;;1.23;;
9445;SDS011;4761;49.490;10.908;2023-08-06T06:11:05;1.38;;;1.27;;
9445;SDS011;4761;49.490;10.908;2023-08-06T06:13:30;3.17;;;1.35;;
9445;SDS011;4761;49.490;10.908;2023-08-06T06:15:56;1.20;;;1.10;;
9445;SDS011;4761;49.490;10.908;2023-08-06T06:18:22;1.30;;;1.20;;
9445;SDS011;4761;49.490;10.908;2023-08-06T06:20:47;1.15;;;1.05;;
9445;SDS011;4761;49.490;10.908;2023-08-06T06:23:13;2.13;;;1.30;;
9445;SDS011;4761;49.490;10.908;2023-08-06T06:25:49;1.25;;;1.10;;
9445;SDS011;4761;49.490;10.908;2023-08-06T06:28:16;1.20;;;1.20;;
9445;SDS011;4761;49.490;10.908;2023-08-06T06:30:42;1.40;;;1.30;;
9445;SDS011;4761;49.490;10.908;2023-08-06T06:33:08;1.40;;;1.30;;
9445;SDS011;4761;49.490;10.908;2023-08-06T06:35:33;1.40;;;1.30;;
9445;SDS011;4761;49.490;10.908;2023-08-06T06:37:59;1.63;;;1.20;;
9445;SDS011;4761;49.490;10.908;2023-08-06T06:40:25;1.40;;;1.30;;
9445;SDS011;4761;49.490;10.908;2023-08-06T06:42:50;1.40;;;1.30;;
9445;SDS011;4761;49.490;10.908;2023-08-06T06:45:16;1.65;;;1.30;;
9445;SDS011;4761;49.490;10.908;2023-08-06T06:47:41;1.40;;;1.30;;
9445;SDS011;4761;49.490;10.908;2023-08-06T06:50:07;1.50;;;1.40;;
9445;SDS011;4761;49.490;10.908;2023-08-06T06:52:33;1.30;;;1.20;;
9445;SDS011;4761;49.490;10.908;2023-08-06T06:54:59;1.40;;;1.30;;
9445;SDS011;4761;49.490;10.908;2023-08-06T06:57:25;1.40;;;1.30;;
9445;SDS011;4761;49.490;10.908;2023-08-06T06:59:50;1.50;;;1.40;;
9445;SDS011;4761;49.490;10.908;2023-08-06T07:02:16;1.30;;;1.20;;
9445;SDS011;4761;49.490;10.908;2023-08-06T07:04:41;1.50;;;1.33;;
9445;SDS011;4761;49.490;10.908;2023-08-06T07:07:07;1.10;;;1.10;;
9445;SDS011;4761;49.490;10.908;2023-08-06T07:09:32;1.30;;;1.20;;
9445;SDS011;4761;49.490;10.908;2023-08-06T07:11:58;1.20;;;1.10;;
9445;SDS011;4761;49.490;10.908;2023-08-06T07:14:28;1.63;;;1.15;;
9445;SDS011;4761;49.490;10.908;2023-08-06T07:16:53;1.33;;;1.23;;
9445;SDS011;4761;49.490;10.908;2023-08-06T07:19:19;2.17;;;1.65;;
9445;SDS011;4761;49.490;10.908;2023-08-06T07:21:45;1.30;;;1.20;;
9445;SDS011;4761;49.490;10.908;2023-08-06T07:24:10;1.30;;;1.20;;
9445;SDS011;4761;49.490;10.908;2023-08-06T07:26:36;1.25;;;1.15;;
9445;SDS011;4761;49.490;10.908;2023-08-06T07:29:02;1.45;;;1.35;;
9445;SDS011;4761;49.490;10.908;2023-08-06T07:31:28;1.30;;;1.20;;
9445;SDS011;4761;49.490;10.908;2023-08-06T07:33:53;1.30;;;1.20;;
9445;SDS011;4761;49.490;10.908;2023-08-06T07:36:19;1.98;;;1.23;;
9445;SDS011;4761;49.490;10.908;2023-08-06T07:38:45;1.40;;;1.30;;
9445;SDS011;4761;49.490;10.908;2023-08-06T07:41:10;1.02;;;1.02;;
9445;SDS011;4761;49.490;10.908;2023-08-06T07:43:36;1.50;;;1.40;;
9445;SDS011;4761;49.490;10.908;2023-08-06T07:46:01;1.33;;;1.20;;
9445;SDS011;4761;49.490;10.908;2023-08-06T07:48:27;1.50;;;1.30;;
9445;SDS011;4761;49.490;10.908;2023-08-06T07:50:54;1.23;;;1.10;;
9445;SDS011;4761;49.490;10.908;2023-08-06T07:53:23;1.30;;;1.20;;
9445;SDS011;4761;49.490;10.908;2023-08-06T07:55:52;1.35;;;1.25;;
9445;SDS011;4761;49.490;10.908;2023-08-06T07:58:19;1.40;;;1.23;;
9445;SDS011;4761;49.490;10.908;2023-08-06T08:00:45;1.83;;;1.45;;
9445;SDS011;4761;49.490;10.908;2023-08-06T08:03:12;1.23;;;1.13;;
9445;SDS011;4761;49.490;10.908;2023-08-06T08:05:39;1.30;;;1.20;;
9445;SDS011;4761;49.490;10.908;2023-08-06T08:08:05;0.80;;;0.80;;
9445;SDS011;4761;49.490;10.908;2023-08-06T08:10:31;1.20;;;1.10;;
9445;SDS011;4761;49.490;10.908;2023-08-06T08:12:57;1.52;;;1.30;;
9445;SDS011;4761;49.490;10.908;2023-08-06T08:15:23;1.30;;;1.20;;
9445;SDS011;4761;49.490;10.908;2023-08-06T08:17:51;1.20;;;1.10;;
9445;SDS011;4761;49.490;10.908;2023-08-06T08:20:17;1.20;;;1.05;;
9445;SDS011;4761;49.490;10.908;2023-08-06T08:22:43;1.05;;;1.00;;
9445;SDS011;4761;49.490;10.908;2023-08-06T08:25:08;1.08;;;1.00;;
9445;SDS011;4761;49.490;10.908;2023-08-06T08:27:34;1.27;;;0.82;;
9445;SDS011;4761;49.490;10.908;2023-08-06T08:29:59;1.10;;;1.00;;
9445;SDS011;4761;49.490;10.908;2023-08-06T08:32:25;1.00;;;1.00;;
9445;SDS011;4761;49.490;10.908;2023-08-06T08:34:50;1.10;;;1.00;;
9445;SDS011;4761;49.490;10.908;2023-08-06T08:37:16;0.82;;;0.80;;
9445;SDS011;4761;49.490;10.908;2023-08-06T08:39:41;0.82;;;0.82;;
9445;SDS011;4761;49.490;10.908;2023-08-06T08:42:07;1.08;;;0.98;;
9445;SDS011;4761;49.490;10.908;2023-08-06T08:44:34;0.88;;;0.88;;
9445;SDS011;4761;49.490;10.908;2023-08-06T08:47:04;0.80;;;0.80;;
9445;SDS011;4761;49.490;10.908;2023-08-06T08:49:36;1.45;;;1.05;;
9445;SDS011;4761;49.490;10.908;2023-08-06T08:52:02;0.80;;;0.80;;
9445;SDS011;4761;49.490;10.908;2023-08-06T08:54:34;1.15;;;1.00;;
9445;SDS011;4761;49.490;10.908;2023-08-06T08:57:02;0.90;;;0.90;;
9445;SDS011;4761;49.490;10.908;2023-08-06T08:59:28;0.85;;;0.80;;
9445;SDS011;4761;49.490;10.908;2023-08-06T09:01:54;0.70;;;0.70;;
9445;SDS011;4761;49.490;10.908;2023-08-06T09:04:20;0.82;;;0.82;;
9445;SDS011;4761;49.490;10.908;2023-08-06T09:06:47;1.10;;;1.00;;
9445;SDS011;4761;49.490;10.908;2023-08-06T09:09:22;0.90;;;0.90;;
9445;SDS011;4761;49.490;10.908;2023-08-06T09:11:53;0.68;;;0.68;;
9445;SDS011;4761;49.490;10.908;2023-08-06T09:14:24;0.88;;;0.88;;
9445;SDS011;4761;49.490;10.908;2023-08-06T09:16:50;0.70;;;0.70;;
9445;SDS011;4761;49.490;10.908;2023-08-06T09:19:17;1.10;;;0.90;;
9445;SDS011;4761;49.490;10.908;2023-08-06T09:21:42;0.85;;;0.85;;
9445;SDS011;4761;49.490;10.908;2023-08-06T09:24:09;0.90;;;0.90;;
9445;SDS011;4761;49.490;10.908;2023-08-06T09:26:36;0.63;;;0.63;;
9445;SDS011;4761;49.490;10.908;2023-08-06T09:29:04;0.70;;;0.70;;
9445;SDS011;4761;49.490;10.908;2023-08-06T09:31:43;0.70;;;0.70;;
9445;SDS011;4761;49.490;10.908;2023-08-06T09:34:10;1.10;;;1.00;;
9445;SDS011;4761;49.490;10.908;2023-08-06T09:36:56;0.93;;;0.90;;
9445;SDS011;4761;49.490;10.908;2023-08-06T09:39:26;0.63;;;0.63;;
9445;SDS011;4761;49.490;10.908;2023-08-06T09:41:59;1.13;;;0.98;;
9445;SDS011;4761;49.490;10.908;2023-08-06T09:44:27;0.80;;;0.80;;
9445;SDS011;4761;49.490;10.908;2023-08-06T09:46:54;0.75;;;0.60;;
9445;SDS011;4761;49.490;10.908;2023-08-06T09:49:25;1.05;;;0.82;;
9445;SDS011;4761;49.490;10.908;2023-08-06T09:51:52;0.95;;;0.93;;
9445;SDS011;4761;49.490;10.908;2023-08-06T09:54:20;0.85;;;0.70;;
9445;SDS011;4761;49.490;10.908;2023-08-06T09:56:47;0.80;;;0.80;;
9445;SDS011;4761;49.490;10.908;2023-08-06T09:59:13;0.70;;;0.70;;
9445;SDS011;4761;49.490;10.908;2023-08-06T10:01:40;0.90;;;0.90;;
9445;SDS011;4761;49.490;10.908;2023-08-06T10:04:06;1.23;;;1.10;;
9445;SDS011;4761;49.490;10.908;2023-08-06T10:06:33;0.93;;;0.82;;
9445;SDS011;4761;49.490;10.908;2023-08-06T10:09:02;1.52;;;1.00;;
9445;SDS011;4761;49.490;10.908;2023-08-06T10:11:29;1.10;;;0.90;;
9445;SDS011;4761;49.490;10.908;2023-08-06T10:13:58;0.80;;;0.80;;
9445;SDS011;4761;49.490;10.908;2023-08-06T10:16:38;1.20;;;0.82;;
9445;SDS011;4761;49.490;10.908;2023-08-06T10:19:05;1.10;;;0.98;;
9445;SDS011;4761;49.490;10.908;2023-08-06T10:21:34;0.70;;;0.70;;
9445;SDS011;4761;49.490;10.908;2023-08-06T10:24:00;0.90;;;0.70;;
9445;SDS011;4761;49.490;10.908;2023-08-06T10:26:27;1.30;;;1.08;;
9445;SDS011;4761;49.490;10.908;2023-08-06T10:28:53;1.25;;;0.90;;
9445;SDS011;4761;49.490;10.908;2023-08-06T10:31:19;1.00;;;0.88;;
9445;SDS011;4761;49.490;10.908;2023-08-06T10:33:45;0.80;;;0.80;;
9445;SDS011;4761;49.490;10.908;2023-08-06T10:36:12;0.95;;;0.70;;
9445;SDS011;4761;49.490;10.908;2023-08-06T10:38:46;1.65;;;1.08;;
9445;SDS011;4761;49.490;10.908;2023-08-06T10:41:27;1.15;;;0.90;;
9445;SDS011;4761;49.490;10.908;2023-08-06T10:44:06;1.08;;;0.90;;
9445;SDS011;4761;49.490;10.908;2023-08-06T10:46:33;1.08;;;0.90;;
9445;SDS011;4761;49.490;10.908;2023-08-06T10:48:59;2.05;;;0.88;;
9445;SDS011;4761;49.490;10.908;2023-08-06T10:51:24;2.55;;;1.00;;
9445;SDS011;4761;49.490;10.908;2023-08-06T10:53:50;2.97;;;1.40;;
9445;SDS011;4761;49.490;10.908;2023-08-06T10:56:16;11.52;;;1.42;;
9445;SDS011;4761;49.490;10.908;2023-08-06T10:58:42;1.98;;;1.17;;
9445;SDS011;4761;49.490;10.908;2023-08-06T11:01:09;3.30;;;1.00;;
9445;SDS011;4761;49.490;10.908;2023-08-06T11:03:35;3.88;;;1.10;;
9445;SDS011;4761;49.490;10.908;2023-08-06T11:06:02;3.53;;;1.00;;
9445;SDS011;4761;49.490;10.908;2023-08-06T11:08:28;1.63;;;0.90;;
9445;SDS011;4761;49.490;10.908;2023-08-06T11:11:11;1.55;;;0.93;;
9445;SDS011;4761;49.490;10.908;2023-08-06T11:13:39;1.92;;;1.00;;
9445;SDS011;4761;49.490;10.908;2023-08-06T11:16:05;1.92;;;0.90;;
9445;SDS011;4761;49.490;10.908;2023-08-06T11:18:31;1.60;;;0.98;;
9445;SDS011;4761;49.490;10.908;2023-08-06T11:21:00;1.20;;;0.80;;
9445;SDS011;4761;49.490;10.908;2023-08-06T11:23:29;2.97;;;0.93;;
9445;SDS011;4761;49.490;10.908;2023-08-06T11:25:56;1.23;;;0.82;;
9445;SDS011;4761;49.490;10.908;2023-08-06T11:28:22;1.65;;;0.90;;
9445;SDS011;4761;49.490;10.908;2023-08-06T11:30:49;2.30;;;1.00;;
9445;SDS011;4761;49.490;10.908;2023-08-06T11:33:14;1.75;;;0.95;;
9445;SDS011;4761;49.490;10.908;2023-08-06T11:35:50;1.95;;;0.80;;
9445;SDS011;4761;49.490;10.908;2023-08-06T11:38:16;3.25;;;0.70;;
9445;SDS011;4761;49.490;10.908;2023-08-06T11:40:44;2.10;;;0.93;;
9445;SDS011;4761;49.490;10.908;2023-08-06T11:43:10;1.25;;;0.80;;
9445;SDS011;4761;49.490;10.908;2023-08-06T11:45:37;1.25;;;0.90;;
9445;SDS011;4761;49.490;10.908;2023-08-06T11:48:02;0.98;;;0.80;;
9445;SDS011;4761;49.490;10.908;2023-08-06T11:50:28;1.60;;;0.95;;
9445;SDS011;4761;49.490;10.908;2023-08-06T11:52:58;1.83;;;0.75;;
9445;SDS011;4761;49.490;10.908;2023-08-06T11:55:25;1.50;;;0.95;;
9445;SDS011;4761;49.490;10.908;2023-08-06T11:57:53;0.82;;;0.82;;
9445;SDS011;4761;49.490;10.908;2023-08-06T12:00:19;0.70;;;0.70;;
9445;SDS011;4761;49.490;10.908;2023-08-06T12:02:47;1.83;;;1.00;;
9445;SDS011;4761;49.490;10.908;2023-08-06T12:05:17;1.27;;;0.80;;
9445;SDS011;4761;49.490;10.908;2023-08-06T12:07:52;1.42;;;0.73;;
9445;SDS011;4761;49.490;10.908;2023-08-06T12:10:21;0.73;;;0.73;;
9445;SDS011;4761;49.490;10.908;2023-08-06T12:12:47;0.90;;;0.70;;
9445;SDS011;4761;49.490;10.908;2023-08-06T12:15:13;1.90;;;0.75;;
9445;SDS011;4761;49.490;10.908;2023-08-06T12:17:39;0.70;;;0.70;;
9445;SDS011;4761;49.490;10.908;2023-08-06T12:20:05;0.77;;;0.70;;
9445;SDS011;4761;49.490;10.908;2023-08-06T12:22:32;0.93;;;0.70;;
9445;SDS011;4761;49.490;10.908;2023-08-06T12:25:03;1.38;;;0.80;;
9445;SDS011;4761;49.490;10.908;2023-08-06T12:27:38;1.23;;;0.80;;
9445;SDS011;4761;49.490;10.908;2023-08-06T12:30:05;0.60;;;0.60;;
9445;SDS011;4761;49.490;10.908;2023-08-06T12:32:31;0.73;;;0.60;;
9445;SDS011;4761;49.490;10.908;2023-08-06T12:34:58;0.65;;;0.60;;
9445;SDS011;4761;49.490;10.908;2023-08-06T12:37:24;0.70;;;0.70;;
9445;SDS011;4761;49.490;10.908;2023-08-06T12:39:50;0.57;;;0.57;;
9445;SDS011;4761;49.490;10.908;2023-08-06T12:42:15;0.82;;;0.68;;
9445;SDS011;4761;49.490;10.908;2023-08-06T12:44:41;0.68;;;0.60;;
9445;SDS011;4761;49.490;10.908;2023-08-06T12:47:07;0.60;;;0.60;;
9445;SDS011;4761;49.490;10.908;2023-08-06T12:49:33;0.68;;;0.65;;
9445;SDS011;4761;49.490;10.908;2023-08-06T12:51:58;1.13;;;0.75;;
9445;SDS011;4761;49.490;10.908;2023-08-06T12:54:27;1.50;;;0.50;;
9445;SDS011;4761;49.490;10.908;2023-08-06T12:56:53;0.55;;;0.52;;
9445;SDS011;4761;49.490;10.908;2023-08-06T12:59:18;1.45;;;0.80;;
9445;SDS011;4761;49.490;10.908;2023-08-06T13:01:44;5.07;;;0.95;;
9445;SDS011;4761;49.490;10.908;2023-08-06T13:04:10;1.35;;;0.73;;
9445;SDS011;4761;49.490;10.908;2023-08-06T13:06:36;2.90;;;0.70;;
9445;SDS011;4761;49.490;10.908;2023-08-06T13:09:04;1.50;;;0.88;;
9445;SDS011;4761;49.490;10.908;2023-08-06T13:11:30;4.65;;;1.15;;
9445;SDS011;4761;49.490;10.908;2023-08-06T13:14:03;5.40;;;0.80;;
9445;SDS011;4761;49.490;10.908;2023-08-06T13:16:34;2.90;;;0.70;;
9445;SDS011;4761;49.490;10.908;2023-08-06T13:19:00;3.45;;;1.48;;
9445;SDS011;4761;49.490;10.908;2023-08-06T13:21:32;1.55;;;0.80;;
9445;SDS011;4761;49.490;10.908;2023-08-06T13:23:59;2.15;;;0.60;;
9445;SDS011;4761;49.490;10.908;2023-08-06T13:26:29;2.83;;;0.70;;
9445;SDS011;4761;49.490;10.908;2023-08-06T13:28:55;2.05;;;0.70;;
9445;SDS011;4761;49.490;10.908;2023-08-06T13:31:22;1.50;;;0.70;;
9445;SDS011;4761;49.490;10.908;2023-08-06T13:33:47;5.32;;;0.70;;
9445;SDS011;4761;49.490;10.908;2023-08-06T13:36:14;1.00;;;0.80;;
9445;SDS011;4761;49.490;10.908;2023-08-06T13:38:40;1.08;;;0.65;;
9445;SDS011;4761;49.490;10.908;2023-08-06T13:41:06;2.30;;;0.80;;
9445;SDS011;4761;49.490;10.908;2023-08-06T13:43:31;1.50;;;0.60;;
9445;SDS011;4761;49.490;10.908;2023-08-06T13:45:57;4.35;;;0.90;;
9445;SDS011;4761;49.490;10.908;2023-08-06T13:48:22;1.80;;;0.95;;
9445;SDS011;4761;49.490;10.908;2023-08-06T13:50:48;1.30;;;0.68;;
9445;SDS011;4761;49.490;10.908;2023-08-06T13:53:13;1.17;;;0.63;;
9445;SDS011;4761;49.490;10.908;2023-08-06T13:55:39;0.50;;;0.40;;
9445;SDS011;4761;49.490;10.908;2023-08-06T13:58:04;0.65;;;0.60;;
9445;SDS011;4761;49.490;10.908;2023-08-06T14:00:30;2.90;;;0.73;;
9445;SDS011;4761;49.490;10.908;2023-08-06T14:02:55;2.03;;;0.60;;
9445;SDS011;4761;49.490;10.908;2023-08-06T14:05:21;0.70;;;0.60;;
9445;SDS011;4761;49.490;10.908;2023-08-06T14:07:46;1.92;;;0.55;;
9445;SDS011;4761;49.490;10.908;2023-08-06T14:10:12;1.33;;;0.63;;
9445;SDS011;4761;49.490;10.908;2023-08-06T14:12:38;0.77;;;0.60;;
9445;SDS011;4761;49.490;10.908;2023-08-06T14:15:03;2.10;;;0.70;;
9445;SDS011;4761;49.490;10.908;2023-08-06T14:17:29;0.77;;;0.57;;
9445;SDS011;4761;49.490;10.908;2023-08-06T14:19:55;0.73;;;0.60;;
9445;SDS011;4761;49.490;10.908;2023-08-06T14:22:21;2.05;;;0.50;;
9445;SDS011;4761;49.490;10.908;2023-08-06T14:24:47;0.63;;;0.50;;
9445;SDS011;4761;49.490;10.908;2023-08-06T14:27:12;0.50;;;0.50;;
9445;SDS011;4761;49.490;10.908;2023-08-06T14:29:38;3.00;;;0.60;;
9445;SDS011;4761;49.490;10.908;2023-08-06T14:32:04;1.08;;;0.50;;
9445;SDS011;4761;49.490;10.908;2023-08-06T14:34:29;0.60;;;0.43;;
9445;SDS011;4761;49.490;10.908;2023-08-06T14:36:55;0.82;;;0.45;;
9445;SDS011;4761;49.490;10.908;2023-08-06T14:39:20;0.68;;;0.50;;
9445;SDS011;4761;49.490;10.908;2023-08-06T14:41:46;0.75;;;0.45;;
9445;SDS011;4761;49.490;10.908;2023-08-06T14:44:12;1.70;;;0.47;;
9445;SDS011;4761;49.490;10.908;2023-08-06T14:46:37;1.70;;;0.50;;
9445;SDS011;4761;49.490;10.908;2023-08-06T14:49:03;1.27;;;0.45;;
9445;SDS011;4761;49.490;10.908;2023-08-06T14:51:28;0.82;;;0.50;;
9445;SDS011;4761;49.490;10.908;2023-08-06T14:53:54;2.17;;;0.60;;
9445;SDS011;4761;49.490;10.908;2023-08-06T14:56:19;0.47;;;0.40;;
9445;SDS011;4761;49.490;10.908;2023-08-06T14:58:45;0.43;;;0.43;;
9445;SDS011;4761;49.490;10.908;2023-08-06T15:01:12;0.85;;;0.50;;
9445;SDS011;4761;49.490;10.908;2023-08-06T15:03:37;0.60;;;0.60;;
9445;SDS011;4761;49.490;10.908;2023-08-06T15:06:03;0.85;;;0.55;;